sensor_id;sensor_type;location;lat;lon;timestamp;temperature;humidity
5689;DHT22;2869;50.432;8.680;2023-04-27T00:02:05;6.60;99.90
5689;DHT22;2869;50.432;8.680;2023-04-27T00:04:33;6.60;99.90
5689;DHT22;2869;50.432;8.680;2023-04-27T00:07:00;6.60;99.90
5689;DHT22;2869;50.432;8.680;2023-04-27T00:09:26;6.60;99.90
5689;DHT22;2869;50.432;8.680;2023-04-27T00:11:53;6.60;99.90
5689;DHT22;2869;50.432;8.680;2023-04-27T00:14:20;6.60;99.90
5689;DHT22;2869;50.432;8.680;2023-04-27T00:16:47;6.60;99.90
5689;DHT22;2869;50.432;8.680;2023-04-27T00:19:13;6.60;99.90
5689;DHT22;2869;50.432;8.680;2023-04-27T00:21:42;6.60;99.90
5689;DHT22;2869;50.432;8.680;2023-04-27T00:24:08;6.50;99.90
5689;DHT22;2869;50.432;8.680;2023-04-27T00:26:35;6.50;99.90
5689;DHT22;2869;50.432;8.680;2023-04-27T00:29:02;6.40;99.90
5689;DHT22;2869;50.432;8.680;2023-04-27T00:31:28;6.40;99.90
5689;DHT22;2869;50.432;8.680;2023-04-27T00:33:55;6.40;99.90
5689;DHT22;2869;50.432;8.680;2023-04-27T00:36:21;6.30;99.90
5689;DHT22;2869;50.432;8.680;2023-04-27T00:38:49;6.30;99.90
5689;DHT22;2869;50.432;8.680;2023-04-27T00:41:16;6.30;99.90
5689;DHT22;2869;50.432;8.680;2023-04-27T00:43:44;6.20;99.90
5689;DHT22;2869;50.432;8.680;2023-04-27T00:46:12;6.20;99.90
5689;DHT22;2869;50.432;8.680;2023-04-27T00:48:39;6.10;99.90
5689;DHT22;2869;50.432;8.680;2023-04-27T00:51:06;6.10;99.90
5689;DHT22;2869;50.432;8.680;2023-04-27T00:53:33;6.00;99.90
5689;DHT22;2869;50.432;8.680;2023-04-27T00:56:02;6.00;99.90
5689;DHT22;2869;50.432;8.680;2023-04-27T00:58:29;6.00;99.90
5689;DHT22;2869;50.432;8.680;2023-04-27T01:00:56;6.00;99.90
5689;DHT22;2869;50.432;8.680;2023-04-27T01:03:23;5.90;99.90
5689;DHT22;2869;50.432;8.680;2023-04-27T01:05:50;5.90;99.90
5689;DHT22;2869;50.432;8.680;2023-04-27T01:08:17;5.80;99.90
5689;DHT22;2869;50.432;8.680;2023-04-27T01:10:44;5.80;99.90
5689;DHT22;2869;50.432;8.680;2023-04-27T01:13:12;5.70;99.90
5689;DHT22;2869;50.432;8.680;2023-04-27T01:15:39;5.70;99.90
5689;DHT22;2869;50.432;8.680;2023-04-27T01:18:06;5.70;99.90
5689;DHT22;2869;50.432;8.680;2023-04-27T01:20:33;5.70;99.90
5689;DHT22;2869;50.432;8.680;2023-04-27T01:23:00;5.60;99.90
5689;DHT22;2869;50.432;8.680;2023-04-27T01:25:29;5.60;99.90
5689;DHT22;2869;50.432;8.680;2023-04-27T01:27:56;5.60;99.90
5689;DHT22;2869;50.432;8.680;2023-04-27T01:30:22;5.60;99.90
5689;DHT22;2869;50.432;8.680;2023-04-27T01:32:49;5.60;99.90
5689;DHT22;2869;50.432;8.680;2023-04-27T01:35:16;5.50;99.90
5689;DHT22;2869;50.432;8.680;2023-04-27T01:37:42;5.50;99.90
5689;DHT22;2869;50.432;8.680;2023-04-27T01:40:09;5.50;99.90
5689;DHT22;2869;50.432;8.680;2023-04-27T01:42:38;5.60;99.90
5689;DHT22;2869;50.432;8.680;2023-04-27T01:45:06;5.60;99.90
5689;DHT22;2869;50.432;8.680;2023-04-27T01:47:33;5.60;99.90
5689;DHT22;2869;50.432;8.680;2023-04-27T01:50:00;5.60;99.90
5689;DHT22;2869;50.432;8.680;2023-04-27T01:52:26;5.60;99.90
5689;DHT22;2869;50.432;8.680;2023-04-27T01:54:53;5.60;99.90
5689;DHT22;2869;50.432;8.680;2023-04-27T01:57:20;5.60;99.90
5689;DHT22;2869;50.432;8.680;2023-04-27T01:59:48;5.50;99.90
5689;DHT22;2869;50.432;8.680;2023-04-27T02:02:14;5.50;99.90
5689;DHT22;2869;50.432;8.680;2023-04-27T02:04:41;5.60;99.90
5689;DHT22;2869;50.432;8.680;2023-04-27T02:07:09;5.60;99.90
5689;DHT22;2869;50.432;8.680;2023-04-27T02:09:36;5.60;99.90
5689;DHT22;2869;50.432;8.680;2023-04-27T02:12:03;5.60;99.90
5689;DHT22;2869;50.432;8.680;2023-04-27T02:14:29;5.60;99.90
5689;DHT22;2869;50.432;8.680;2023-04-27T02:16:57;5.60;99.90
5689;DHT22;2869;50.432;8.680;2023-04-27T02:19:24;5.50;99.90
5689;DHT22;2869;50.432;8.680;2023-04-27T02:21:51;5.50;99.90
5689;DHT22;2869;50.432;8.680;2023-04-27T02:24:17;5.50;99.90
5689;DHT22;2869;50.432;8.680;2023-04-27T02:26:44;5.50;99.90
5689;DHT22;2869;50.432;8.680;2023-04-27T02:29:11;5.50;99.90
5689;DHT22;2869;50.432;8.680;2023-04-27T02:31:37;5.50;99.90
5689;DHT22;2869;50.432;8.680;2023-04-27T02:34:05;5.50;99.90
5689;DHT22;2869;50.432;8.680;2023-04-27T02:36:32;5.40;99.90
5689;DHT22;2869;50.432;8.680;2023-04-27T02:38:58;5.40;99.90
5689;DHT22;2869;50.432;8.680;2023-04-27T02:41:25;5.40;99.90
5689;DHT22;2869;50.432;8.680;2023-04-27T02:43:52;5.30;99.90
5689;DHT22;2869;50.432;8.680;2023-04-27T02:46:19;5.40;99.90
5689;DHT22;2869;50.432;8.680;2023-04-27T02:48:46;5.30;99.90
5689;DHT22;2869;50.432;8.680;2023-04-27T02:51:14;5.30;99.90
5689;DHT22;2869;50.432;8.680;2023-04-27T02:53:40;5.30;99.90
5689;DHT22;2869;50.432;8.680;2023-04-27T02:56:07;5.40;99.90
5689;DHT22;2869;50.432;8.680;2023-04-27T02:58:33;5.40;99.90
5689;DHT22;2869;50.432;8.680;2023-04-27T03:01:00;5.30;99.90
5689;DHT22;2869;50.432;8.680;2023-04-27T03:03:27;5.40;99.90
5689;DHT22;2869;50.432;8.680;2023-04-27T03:05:53;5.40;99.90
5689;DHT22;2869;50.432;8.680;2023-04-27T03:08:21;5.40;99.90
5689;DHT22;2869;50.432;8.680;2023-04-27T03:10:48;5.40;99.90
5689;DHT22;2869;50.432;8.680;2023-04-27T03:13:15;5.40;99.90
5689;DHT22;2869;50.432;8.680;2023-04-27T03:15:41;5.40;99.90
5689;DHT22;2869;50.432;8.680;2023-04-27T03:18:08;5.40;99.90
5689;DHT22;2869;50.432;8.680;2023-04-27T03:20:35;5.40;99.90
5689;DHT22;2869;50.432;8.680;2023-04-27T03:23:02;5.40;99.90
5689;DHT22;2869;50.432;8.680;2023-04-27T03:25:30;5.40;99.90
5689;DHT22;2869;50.432;8.680;2023-04-27T03:27:57;5.30;99.90
5689;DHT22;2869;50.432;8.680;2023-04-27T03:30:23;5.30;99.90
5689;DHT22;2869;50.432;8.680;2023-04-27T03:32:50;5.30;99.90
5689;DHT22;2869;50.432;8.680;2023-04-27T03:35:17;5.30;99.90
5689;DHT22;2869;50.432;8.680;2023-04-27T03:37:43;5.20;99.90
5689;DHT22;2869;50.432;8.680;2023-04-27T03:40:11;5.20;99.90
5689;DHT22;2869;50.432;8.680;2023-04-27T03:42:40;5.20;99.90
5689;DHT22;2869;50.432;8.680;2023-04-27T03:45:07;5.20;99.90
5689;DHT22;2869;50.432;8.680;2023-04-27T03:47:36;5.10;99.90
5689;DHT22;2869;50.432;8.680;2023-04-27T03:50:03;5.00;99.90
5689;DHT22;2869;50.432;8.680;2023-04-27T03:52:30;5.00;99.90
5689;DHT22;2869;50.432;8.680;2023-04-27T03:54:56;5.00;99.90
5689;DHT22;2869;50.432;8.680;2023-04-27T03:57:23;4.90;99.90
5689;DHT22;2869;50.432;8.680;2023-04-27T03:59:51;4.90;99.90
5689;DHT22;2869;50.432;8.680;2023-04-27T04:02:18;4.90;99.90
5689;DHT22;2869;50.432;8.680;2023-04-27T04:04:44;4.80;99.90
5689;DHT22;2869;50.432;8.680;2023-04-27T04:07:11;4.80;99.90
5689;DHT22;2869;50.432;8.680;2023-04-27T04:09:38;4.70;99.90
5689;DHT22;2869;50.432;8.680;2023-04-27T04:12:05;4.70;99.90
5689;DHT22;2869;50.432;8.680;2023-04-27T04:14:31;4.70;99.90
5689;DHT22;2869;50.432;8.680;2023-04-27T04:16:59;4.60;99.90
5689;DHT22;2869;50.432;8.680;2023-04-27T04:19:26;4.60;99.90
5689;DHT22;2869;50.432;8.680;2023-04-27T04:21:53;4.60;99.90
5689;DHT22;2869;50.432;8.680;2023-04-27T04:24:21;4.60;99.90
5689;DHT22;2869;50.432;8.680;2023-04-27T04:26:48;4.60;99.90
5689;DHT22;2869;50.432;8.680;2023-04-27T04:29:14;4.70;99.90
5689;DHT22;2869;50.432;8.680;2023-04-27T04:31:41;4.60;99.90
5689;DHT22;2869;50.432;8.680;2023-04-27T04:34:09;4.60;99.90
5689;DHT22;2869;50.432;8.680;2023-04-27T04:36:35;4.60;99.90
5689;DHT22;2869;50.432;8.680;2023-04-27T04:39:02;4.60;99.90
5689;DHT22;2869;50.432;8.680;2023-04-27T04:41:30;4.60;99.90
5689;DHT22;2869;50.432;8.680;2023-04-27T04:43:56;4.60;99.90
5689;DHT22;2869;50.432;8.680;2023-04-27T04:46:23;4.60;99.90
5689;DHT22;2869;50.432;8.680;2023-04-27T04:48:50;4.60;99.90
5689;DHT22;2869;50.432;8.680;2023-04-27T04:51:18;4.60;99.90
5689;DHT22;2869;50.432;8.680;2023-04-27T04:53:44;4.70;99.90
5689;DHT22;2869;50.432;8.680;2023-04-27T04:56:12;4.70;99.90
5689;DHT22;2869;50.432;8.680;2023-04-27T04:58:40;4.70;99.90
5689;DHT22;2869;50.432;8.680;2023-04-27T05:01:07;4.70;99.90
5689;DHT22;2869;50.432;8.680;2023-04-27T05:03:33;4.70;99.90
5689;DHT22;2869;50.432;8.680;2023-04-27T05:06:00;4.80;99.90
5689;DHT22;2869;50.432;8.680;2023-04-27T05:08:28;4.80;99.90
5689;DHT22;2869;50.432;8.680;2023-04-27T05:10:55;4.80;99.90
5689;DHT22;2869;50.432;8.680;2023-04-27T05:13:21;4.90;99.90
5689;DHT22;2869;50.432;8.680;2023-04-27T05:15:49;5.00;99.90
5689;DHT22;2869;50.432;8.680;2023-04-27T05:18:15;5.00;99.90
5689;DHT22;2869;50.432;8.680;2023-04-27T05:20:42;5.10;99.90
5689;DHT22;2869;50.432;8.680;2023-04-27T05:23:09;5.20;99.90
5689;DHT22;2869;50.432;8.680;2023-04-27T05:25:37;5.30;99.90
5689;DHT22;2869;50.432;8.680;2023-04-27T05:28:06;5.50;99.90
5689;DHT22;2869;50.432;8.680;2023-04-27T05:30:32;5.70;99.90
5689;DHT22;2869;50.432;8.680;2023-04-27T05:32:59;5.90;99.90
5689;DHT22;2869;50.432;8.680;2023-04-27T05:35:26;6.00;99.90
5689;DHT22;2869;50.432;8.680;2023-04-27T05:37:53;6.20;99.90
5689;DHT22;2869;50.432;8.680;2023-04-27T05:40:20;6.40;99.90
5689;DHT22;2869;50.432;8.680;2023-04-27T05:42:48;6.70;99.90
5689;DHT22;2869;50.432;8.680;2023-04-27T05:45:15;7.00;99.90
5689;DHT22;2869;50.432;8.680;2023-04-27T05:47:42;7.30;99.90
5689;DHT22;2869;50.432;8.680;2023-04-27T05:50:09;7.60;99.90
5689;DHT22;2869;50.432;8.680;2023-04-27T05:52:36;7.90;99.90
5689;DHT22;2869;50.432;8.680;2023-04-27T05:55:04;8.10;99.90
5689;DHT22;2869;50.432;8.680;2023-04-27T05:57:32;8.30;99.90
5689;DHT22;2869;50.432;8.680;2023-04-27T06:00:00;8.60;99.90
5689;DHT22;2869;50.432;8.680;2023-04-27T06:02:26;8.80;99.90
5689;DHT22;2869;50.432;8.680;2023-04-27T06:04:53;9.00;99.90
5689;DHT22;2869;50.432;8.680;2023-04-27T06:07:20;9.30;99.90
5689;DHT22;2869;50.432;8.680;2023-04-27T06:09:46;9.40;99.90
5689;DHT22;2869;50.432;8.680;2023-04-27T06:12:13;9.60;99.90
5689;DHT22;2869;50.432;8.680;2023-04-27T06:14:40;9.80;99.90
5689;DHT22;2869;50.432;8.680;2023-04-27T06:17:08;10.10;99.90
5689;DHT22;2869;50.432;8.680;2023-04-27T06:19:34;10.30;99.90
5689;DHT22;2869;50.432;8.680;2023-04-27T06:22:01;10.40;99.90
5689;DHT22;2869;50.432;8.680;2023-04-27T06:24:28;10.70;99.90
5689;DHT22;2869;50.432;8.680;2023-04-27T06:26:55;10.90;99.90
5689;DHT22;2869;50.432;8.680;2023-04-27T06:29:21;10.90;99.90
5689;DHT22;2869;50.432;8.680;2023-04-27T06:31:48;10.70;99.90
5689;DHT22;2869;50.432;8.680;2023-04-27T06:34:16;10.40;99.90
5689;DHT22;2869;50.432;8.680;2023-04-27T06:36:43;10.00;99.90
5689;DHT22;2869;50.432;8.680;2023-04-27T06:39:09;9.80;99.90
5689;DHT22;2869;50.432;8.680;2023-04-27T06:41:36;9.60;99.90
5689;DHT22;2869;50.432;8.680;2023-04-27T06:44:03;9.60;99.90
5689;DHT22;2869;50.432;8.680;2023-04-27T06:46:30;9.70;99.90
5689;DHT22;2869;50.432;8.680;2023-04-27T06:48:56;9.70;99.90
5689;DHT22;2869;50.432;8.680;2023-04-27T06:51:24;9.80;99.90
5689;DHT22;2869;50.432;8.680;2023-04-27T06:53:51;9.80;99.90
5689;DHT22;2869;50.432;8.680;2023-04-27T06:56:17;9.80;99.90
5689;DHT22;2869;50.432;8.680;2023-04-27T06:58:44;9.90;99.90
5689;DHT22;2869;50.432;8.680;2023-04-27T07:01:11;10.30;99.90
5689;DHT22;2869;50.432;8.680;2023-04-27T07:03:37;10.80;99.90
5689;DHT22;2869;50.432;8.680;2023-04-27T07:06:04;11.30;99.90
5689;DHT22;2869;50.432;8.680;2023-04-27T07:08:32;11.60;99.90
5689;DHT22;2869;50.432;8.680;2023-04-27T07:10:59;11.60;99.90
5689;DHT22;2869;50.432;8.680;2023-04-27T07:13:25;11.60;99.90
5689;DHT22;2869;50.432;8.680;2023-04-27T07:15:55;11.60;99.90
5689;DHT22;2869;50.432;8.680;2023-04-27T07:18:23;11.60;99.90
5689;DHT22;2869;50.432;8.680;2023-04-27T07:20:50;11.70;99.90
5689;DHT22;2869;50.432;8.680;2023-04-27T07:23:16;11.80;99.90
5689;DHT22;2869;50.432;8.680;2023-04-27T07:25:44;11.90;99.90
5689;DHT22;2869;50.432;8.680;2023-04-27T07:28:11;12.10;99.90
5689;DHT22;2869;50.432;8.680;2023-04-27T07:30:38;12.10;99.90
5689;DHT22;2869;50.432;8.680;2023-04-27T07:33:06;12.10;99.90
5689;DHT22;2869;50.432;8.680;2023-04-27T07:35:33;12.30;99.90
5689;DHT22;2869;50.432;8.680;2023-04-27T07:37:59;12.40;99.90
5689;DHT22;2869;50.432;8.680;2023-04-27T07:40:27;12.70;99.90
5689;DHT22;2869;50.432;8.680;2023-04-27T07:42:55;12.70;99.90
5689;DHT22;2869;50.432;8.680;2023-04-27T07:45:23;12.80;99.90
5689;DHT22;2869;50.432;8.680;2023-04-27T07:47:56;12.60;99.90
5689;DHT22;2869;50.432;8.680;2023-04-27T07:50:24;12.70;99.90
5689;DHT22;2869;50.432;8.680;2023-04-27T07:52:51;12.90;99.90
5689;DHT22;2869;50.432;8.680;2023-04-27T07:55:18;13.10;99.90
5689;DHT22;2869;50.432;8.680;2023-04-27T07:57:45;13.30;99.90
5689;DHT22;2869;50.432;8.680;2023-04-27T08:00:14;13.40;99.90
5689;DHT22;2869;50.432;8.680;2023-04-27T08:02:41;13.10;99.90
5689;DHT22;2869;50.432;8.680;2023-04-27T08:05:08;13.00;99.90
5689;DHT22;2869;50.432;8.680;2023-04-27T08:07:34;12.80;99.90
5689;DHT22;2869;50.432;8.680;2023-04-27T08:10:01;12.80;99.90
5689;DHT22;2869;50.432;8.680;2023-04-27T08:12:28;12.90;99.90
5689;DHT22;2869;50.432;8.680;2023-04-27T08:14:54;13.10;99.90
5689;DHT22;2869;50.432;8.680;2023-04-27T08:17:22;13.40;99.90
5689;DHT22;2869;50.432;8.680;2023-04-27T08:19:49;13.70;99.90
5689;DHT22;2869;50.432;8.680;2023-04-27T08:22:15;13.90;99.90
5689;DHT22;2869;50.432;8.680;2023-04-27T08:24:42;14.00;99.90
5689;DHT22;2869;50.432;8.680;2023-04-27T08:27:09;13.90;99.90
5689;DHT22;2869;50.432;8.680;2023-04-27T08:29:35;13.90;99.90
5689;DHT22;2869;50.432;8.680;2023-04-27T08:32:03;14.00;99.90
5689;DHT22;2869;50.432;8.680;2023-04-27T08:34:31;14.30;99.90
5689;DHT22;2869;50.432;8.680;2023-04-27T08:36:58;14.70;99.90
5689;DHT22;2869;50.432;8.680;2023-04-27T08:39:26;14.80;99.90
5689;DHT22;2869;50.432;8.680;2023-04-27T08:41:53;15.00;99.90
5689;DHT22;2869;50.432;8.680;2023-04-27T08:44:19;15.20;99.90
5689;DHT22;2869;50.432;8.680;2023-04-27T08:46:46;15.30;99.90
5689;DHT22;2869;50.432;8.680;2023-04-27T08:49:13;15.40;99.90
5689;DHT22;2869;50.432;8.680;2023-04-27T08:51:41;15.40;99.90
5689;DHT22;2869;50.432;8.680;2023-04-27T08:54:08;15.30;99.90
5689;DHT22;2869;50.432;8.680;2023-04-27T08:56:35;15.40;99.90
5689;DHT22;2869;50.432;8.680;2023-04-27T08:59:02;15.30;99.90
5689;DHT22;2869;50.432;8.680;2023-04-27T09:01:29;15.20;99.90
5689;DHT22;2869;50.432;8.680;2023-04-27T09:03:57;15.50;99.90
5689;DHT22;2869;50.432;8.680;2023-04-27T09:06:30;15.80;99.90
5689;DHT22;2869;50.432;8.680;2023-04-27T09:08:59;16.10;99.90
5689;DHT22;2869;50.432;8.680;2023-04-27T09:11:30;16.40;99.90
5689;DHT22;2869;50.432;8.680;2023-04-27T09:13:59;16.60;99.90
5689;DHT22;2869;50.432;8.680;2023-04-27T09:16:27;16.80;99.90
5689;DHT22;2869;50.432;8.680;2023-04-27T09:18:55;16.80;99.90
5689;DHT22;2869;50.432;8.680;2023-04-27T09:21:22;16.70;99.90
5689;DHT22;2869;50.432;8.680;2023-04-27T09:23:49;16.70;99.90
5689;DHT22;2869;50.432;8.680;2023-04-27T09:26:20;16.50;99.90
5689;DHT22;2869;50.432;8.680;2023-04-27T09:28:49;16.60;99.90
5689;DHT22;2869;50.432;8.680;2023-04-27T09:31:16;16.70;99.90
5689;DHT22;2869;50.432;8.680;2023-04-27T09:33:43;16.90;99.90
5689;DHT22;2869;50.432;8.680;2023-04-27T09:36:12;17.10;99.90
5689;DHT22;2869;50.432;8.680;2023-04-27T09:38:39;17.10;99.30
5689;DHT22;2869;50.432;8.680;2023-04-27T09:41:07;17.10;99.70
5689;DHT22;2869;50.432;8.680;2023-04-27T09:43:35;17.30;99.90
5689;DHT22;2869;50.432;8.680;2023-04-27T09:46:03;17.40;99.40
5689;DHT22;2869;50.432;8.680;2023-04-27T09:48:30;17.40;98.90
5689;DHT22;2869;50.432;8.680;2023-04-27T09:50:56;17.50;99.50
5689;DHT22;2869;50.432;8.680;2023-04-27T09:53:26;17.60;97.60
5689;DHT22;2869;50.432;8.680;2023-04-27T09:56:07;17.40;96.80
5689;DHT22;2869;50.432;8.680;2023-04-27T09:58:48;17.20;99.10
5689;DHT22;2869;50.432;8.680;2023-04-27T10:01:25;17.30;99.30
5689;DHT22;2869;50.432;8.680;2023-04-27T10:04:04;17.40;99.40
5689;DHT22;2869;50.432;8.680;2023-04-27T10:06:56;17.40;99.90
5689;DHT22;2869;50.432;8.680;2023-04-27T10:09:23;17.90;98.40
5689;DHT22;2869;50.432;8.680;2023-04-27T10:11:51;18.10;98.30
5689;DHT22;2869;50.432;8.680;2023-04-27T10:14:21;18.40;97.90
5689;DHT22;2869;50.432;8.680;2023-04-27T10:16:51;18.20;97.70
5689;DHT22;2869;50.432;8.680;2023-04-27T10:19:18;18.30;97.30
5689;DHT22;2869;50.432;8.680;2023-04-27T10:21:57;18.00;97.20
5689;DHT22;2869;50.432;8.680;2023-04-27T10:24:33;18.20;97.90
5689;DHT22;2869;50.432;8.680;2023-04-27T10:27:02;18.10;97.50
5689;DHT22;2869;50.432;8.680;2023-04-27T10:29:40;18.20;97.00
5689;DHT22;2869;50.432;8.680;2023-04-27T10:32:10;18.30;98.80
5689;DHT22;2869;50.432;8.680;2023-04-27T10:34:37;18.50;97.00
5689;DHT22;2869;50.432;8.680;2023-04-27T10:37:05;18.80;97.30
5689;DHT22;2869;50.432;8.680;2023-04-27T10:39:34;18.50;96.60
5689;DHT22;2869;50.432;8.680;2023-04-27T10:42:02;18.20;96.10
5689;DHT22;2869;50.432;8.680;2023-04-27T10:44:30;17.70;97.10
5689;DHT22;2869;50.432;8.680;2023-04-27T10:47:00;17.40;96.90
5689;DHT22;2869;50.432;8.680;2023-04-27T10:49:27;17.40;97.00
5689;DHT22;2869;50.432;8.680;2023-04-27T10:51:56;17.60;95.40
5689;DHT22;2869;50.432;8.680;2023-04-27T10:54:25;17.50;96.50
5689;DHT22;2869;50.432;8.680;2023-04-27T10:56:52;17.90;98.90
5689;DHT22;2869;50.432;8.680;2023-04-27T10:59:19;18.10;95.70
5689;DHT22;2869;50.432;8.680;2023-04-27T11:01:47;17.50;95.50
5689;DHT22;2869;50.432;8.680;2023-04-27T11:04:16;17.40;96.10
5689;DHT22;2869;50.432;8.680;2023-04-27T11:06:44;16.90;96.00
5689;DHT22;2869;50.432;8.680;2023-04-27T11:09:11;16.70;97.40
5689;DHT22;2869;50.432;8.680;2023-04-27T11:11:43;16.40;97.10
5689;DHT22;2869;50.432;8.680;2023-04-27T11:14:14;16.20;97.00
5689;DHT22;2869;50.432;8.680;2023-04-27T11:16:45;16.30;98.50
5689;DHT22;2869;50.432;8.680;2023-04-27T11:19:12;16.10;97.40
5689;DHT22;2869;50.432;8.680;2023-04-27T11:21:41;15.90;98.30
5689;DHT22;2869;50.432;8.680;2023-04-27T11:24:08;15.60;98.40
5689;DHT22;2869;50.432;8.680;2023-04-27T11:26:35;15.40;99.10
5689;DHT22;2869;50.432;8.680;2023-04-27T11:29:03;15.70;99.90
5689;DHT22;2869;50.432;8.680;2023-04-27T11:31:38;15.80;99.90
5689;DHT22;2869;50.432;8.680;2023-04-27T11:34:06;15.70;99.20
5689;DHT22;2869;50.432;8.680;2023-04-27T11:36:33;16.10;99.40
5689;DHT22;2869;50.432;8.680;2023-04-27T11:39:02;16.80;99.90
5689;DHT22;2869;50.432;8.680;2023-04-27T11:41:34;17.40;98.80
5689;DHT22;2869;50.432;8.680;2023-04-27T11:44:06;18.00;98.30
5689;DHT22;2869;50.432;8.680;2023-04-27T11:46:34;18.00;96.60
5689;DHT22;2869;50.432;8.680;2023-04-27T11:49:02;17.20;97.50
5689;DHT22;2869;50.432;8.680;2023-04-27T11:51:30;16.80;97.70
5689;DHT22;2869;50.432;8.680;2023-04-27T11:54:02;16.80;98.80
5689;DHT22;2869;50.432;8.680;2023-04-27T11:56:38;17.00;99.40
5689;DHT22;2869;50.432;8.680;2023-04-27T11:59:05;17.20;98.40
5689;DHT22;2869;50.432;8.680;2023-04-27T12:01:32;17.50;99.00
5689;DHT22;2869;50.432;8.680;2023-04-27T12:03:59;18.10;99.60
5689;DHT22;2869;50.432;8.680;2023-04-27T12:06:27;18.50;97.90
5689;DHT22;2869;50.432;8.680;2023-04-27T12:08:54;19.00;97.90
5689;DHT22;2869;50.432;8.680;2023-04-27T12:11:24;18.90;97.50
5689;DHT22;2869;50.432;8.680;2023-04-27T12:13:52;18.70;98.20
5689;DHT22;2869;50.432;8.680;2023-04-27T12:16:18;18.20;97.40
5689;DHT22;2869;50.432;8.680;2023-04-27T12:18:46;17.70;98.60
5689;DHT22;2869;50.432;8.680;2023-04-27T12:21:13;17.50;98.30
5689;DHT22;2869;50.432;8.680;2023-04-27T12:23:40;17.30;98.10
5689;DHT22;2869;50.432;8.680;2023-04-27T12:26:07;17.40;97.70
5689;DHT22;2869;50.432;8.680;2023-04-27T12:28:36;17.50;98.00
5689;DHT22;2869;50.432;8.680;2023-04-27T12:31:03;17.70;99.20
5689;DHT22;2869;50.432;8.680;2023-04-27T12:33:30;18.20;97.90
5689;DHT22;2869;50.432;8.680;2023-04-27T12:35:57;18.60;98.10
5689;DHT22;2869;50.432;8.680;2023-04-27T12:38:23;18.60;96.60
5689;DHT22;2869;50.432;8.680;2023-04-27T12:40:50;18.50;96.80
5689;DHT22;2869;50.432;8.680;2023-04-27T12:43:17;18.50;96.50
5689;DHT22;2869;50.432;8.680;2023-04-27T12:45:44;18.20;96.20
5689;DHT22;2869;50.432;8.680;2023-04-27T12:48:11;17.80;96.70
5689;DHT22;2869;50.432;8.680;2023-04-27T12:50:39;17.50;97.50
5689;DHT22;2869;50.432;8.680;2023-04-27T12:53:05;17.40;97.20
5689;DHT22;2869;50.432;8.680;2023-04-27T12:55:32;17.20;96.60
5689;DHT22;2869;50.432;8.680;2023-04-27T12:57:59;17.20;97.50
5689;DHT22;2869;50.432;8.680;2023-04-27T13:00:25;17.20;97.10
5689;DHT22;2869;50.432;8.680;2023-04-27T13:02:53;17.70;98.00
5689;DHT22;2869;50.432;8.680;2023-04-27T13:05:20;18.40;98.70
5689;DHT22;2869;50.432;8.680;2023-04-27T13:07:47;18.90;96.90
5689;DHT22;2869;50.432;8.680;2023-04-27T13:10:14;19.10;98.40
5689;DHT22;2869;50.432;8.680;2023-04-27T13:12:40;19.30;98.30
5689;DHT22;2869;50.432;8.680;2023-04-27T13:15:08;19.50;97.20
5689;DHT22;2869;50.432;8.680;2023-04-27T13:17:35;19.70;96.00
5689;DHT22;2869;50.432;8.680;2023-04-27T13:20:03;20.00;96.60
5689;DHT22;2869;50.432;8.680;2023-04-27T13:22:30;20.20;96.30
5689;DHT22;2869;50.432;8.680;2023-04-27T13:24:57;20.00;95.30
5689;DHT22;2869;50.432;8.680;2023-04-27T13:27:24;19.40;95.60
5689;DHT22;2869;50.432;8.680;2023-04-27T13:29:52;18.90;96.50
5689;DHT22;2869;50.432;8.680;2023-04-27T13:32:19;18.60;96.30
5689;DHT22;2869;50.432;8.680;2023-04-27T13:34:46;18.20;96.40
5689;DHT22;2869;50.432;8.680;2023-04-27T13:37:15;18.00;96.60
5689;DHT22;2869;50.432;8.680;2023-04-27T13:39:41;18.00;98.10
5689;DHT22;2869;50.432;8.680;2023-04-27T13:42:08;17.90;96.20
5689;DHT22;2869;50.432;8.680;2023-04-27T13:44:35;17.40;96.80
5689;DHT22;2869;50.432;8.680;2023-04-27T13:47:02;17.10;97.30
5689;DHT22;2869;50.432;8.680;2023-04-27T13:49:29;17.00;97.00
5689;DHT22;2869;50.432;8.680;2023-04-27T13:51:56;16.70;97.40
5689;DHT22;2869;50.432;8.680;2023-04-27T13:54:24;16.40;97.30
5689;DHT22;2869;50.432;8.680;2023-04-27T13:56:51;16.40;97.80
5689;DHT22;2869;50.432;8.680;2023-04-27T13:59:18;16.40;98.30
5689;DHT22;2869;50.432;8.680;2023-04-27T14:01:46;16.40;98.40
5689;DHT22;2869;50.432;8.680;2023-04-27T14:04:12;16.30;98.30
5689;DHT22;2869;50.432;8.680;2023-04-27T14:06:39;16.20;98.90
5689;DHT22;2869;50.432;8.680;2023-04-27T14:09:06;16.10;98.80
5689;DHT22;2869;50.432;8.680;2023-04-27T14:11:34;16.30;99.20
5689;DHT22;2869;50.432;8.680;2023-04-27T14:14:02;16.80;99.90
5689;DHT22;2869;50.432;8.680;2023-04-27T14:16:29;17.30;99.30
5689;DHT22;2869;50.432;8.680;2023-04-27T14:18:56;17.50;97.70
5689;DHT22;2869;50.432;8.680;2023-04-27T14:21:23;17.40;96.90
5689;DHT22;2869;50.432;8.680;2023-04-27T14:23:50;17.30;98.10
5689;DHT22;2869;50.432;8.680;2023-04-27T14:26:16;17.10;97.50
5689;DHT22;2869;50.432;8.680;2023-04-27T14:28:44;17.00;98.40
5689;DHT22;2869;50.432;8.680;2023-04-27T14:31:11;16.90;98.50
5689;DHT22;2869;50.432;8.680;2023-04-27T14:33:38;17.00;99.30
5689;DHT22;2869;50.432;8.680;2023-04-27T14:36:05;17.00;98.50
5689;DHT22;2869;50.432;8.680;2023-04-27T14:38:32;16.90;99.80
5689;DHT22;2869;50.432;8.680;2023-04-27T14:40:59;17.00;99.00
5689;DHT22;2869;50.432;8.680;2023-04-27T14:43:25;17.10;99.80
5689;DHT22;2869;50.432;8.680;2023-04-27T14:45:53;17.00;99.00
5689;DHT22;2869;50.432;8.680;2023-04-27T14:48:20;17.00;99.70
5689;DHT22;2869;50.432;8.680;2023-04-27T14:50:46;17.20;98.80
5689;DHT22;2869;50.432;8.680;2023-04-27T14:53:13;17.30;98.50
5689;DHT22;2869;50.432;8.680;2023-04-27T14:55:40;17.60;98.10
5689;DHT22;2869;50.432;8.680;2023-04-27T14:58:10;17.90;98.00
5689;DHT22;2869;50.432;8.680;2023-04-27T15:00:36;18.10;97.70
5689;DHT22;2869;50.432;8.680;2023-04-27T15:03:04;18.10;99.10
5689;DHT22;2869;50.432;8.680;2023-04-27T15:05:31;18.00;98.50
5689;DHT22;2869;50.432;8.680;2023-04-27T15:07:57;17.70;97.90
5689;DHT22;2869;50.432;8.680;2023-04-27T15:10:25;17.10;97.50
5689;DHT22;2869;50.432;8.680;2023-04-27T15:12:51;16.80;98.20
5689;DHT22;2869;50.432;8.680;2023-04-27T15:15:18;16.60;98.50
5689;DHT22;2869;50.432;8.680;2023-04-27T15:17:44;16.50;98.90
5689;DHT22;2869;50.432;8.680;2023-04-27T15:20:13;16.50;99.20
5689;DHT22;2869;50.432;8.680;2023-04-27T15:22:39;16.80;99.90
5689;DHT22;2869;50.432;8.680;2023-04-27T15:25:07;16.90;99.50
5689;DHT22;2869;50.432;8.680;2023-04-27T15:27:34;16.80;99.30
5689;DHT22;2869;50.432;8.680;2023-04-27T15:30:01;16.60;99.20
5689;DHT22;2869;50.432;8.680;2023-04-27T15:32:29;16.50;99.50
5689;DHT22;2869;50.432;8.680;2023-04-27T15:34:56;16.50;99.90
5689;DHT22;2869;50.432;8.680;2023-04-27T15:37:24;16.50;99.90
5689;DHT22;2869;50.432;8.680;2023-04-27T15:39:52;16.40;99.70
5689;DHT22;2869;50.432;8.680;2023-04-27T15:42:19;16.30;99.90
5689;DHT22;2869;50.432;8.680;2023-04-27T15:44:45;16.30;99.90
5689;DHT22;2869;50.432;8.680;2023-04-27T15:47:13;16.40;99.90
5689;DHT22;2869;50.432;8.680;2023-04-27T15:49:40;16.30;99.90
5689;DHT22;2869;50.432;8.680;2023-04-27T15:52:06;16.40;99.90
5689;DHT22;2869;50.432;8.680;2023-04-27T15:54:34;16.50;99.90
5689;DHT22;2869;50.432;8.680;2023-04-27T15:57:01;16.50;99.90
5689;DHT22;2869;50.432;8.680;2023-04-27T15:59:28;16.70;99.90
5689;DHT22;2869;50.432;8.680;2023-04-27T16:01:55;16.80;99.90
5689;DHT22;2869;50.432;8.680;2023-04-27T16:04:22;16.80;99.90
5689;DHT22;2869;50.432;8.680;2023-04-27T16:06:48;16.90;99.90
5689;DHT22;2869;50.432;8.680;2023-04-27T16:09:15;16.80;99.90